Wyandotte, Michigan
Current Conditions -  °F | °C
As of 1:34 AM on Tuesday 21 Oct 2014 (Local Time) from KONZ Reporting Station
Broken Clouds Broken Clouds  
Wind Chill: 10°   Ceiling: 5500
Heat Index: 10°   Visibility: 10mi
Dew Point:   Wind: 6mph
Humidity: 87%   Direction: 330°NNW
Pressure: 29.86"   Gusts: NA
Location:  42.2°N, 83.15°W
Report Text: KONZ 210534Z AUTO 33005KT 10SM BKN055 10/08 A2986 RMK AO2
Loading
Personal Weather Stations






























Interactive Weather Map
Tropical Storm Tracking
New forecast layout! Learn more

10-Day Weather Forecast

Advertisements
Track Severe Weather on mobile